createdAt,value
2023-01-11T00:01:24.020Z,95181.03
2023-01-11T00:03:51.576Z,95174.94
2023-01-11T00:06:19.192Z,95182.25
2023-01-11T00:08:47.084Z,95170.28
2023-01-11T00:11:16.589Z,95168.91
2023-01-11T00:13:46.071Z,95163.16
2023-01-11T00:16:13.793Z,95158.41
2023-01-11T00:18:41.441Z,95159.69
2023-01-11T00:21:09.627Z,95160.16
2023-01-11T00:23:38.517Z,95162.66
2023-01-11T00:26:07.138Z,95151.34
2023-01-11T00:28:34.936Z,95165.84
2023-01-11T00:31:03.961Z,95154.53
2023-01-11T00:33:31.629Z,95154.81
2023-01-11T00:35:59.176Z,95159.16
2023-01-11T00:38:46.769Z,95158.16
2023-01-11T00:41:33.333Z,95148.22
2023-01-11T00:44:18.734Z,95141.63
2023-01-11T00:47:05.322Z,95146.44
2023-01-11T00:49:32.947Z,95138.19
2023-01-11T00:52:00.612Z,95145.41
2023-01-11T00:54:28.297Z,95143.75
2023-01-11T00:56:55.895Z,95144.13
2023-01-11T00:59:23.473Z,95142.09
2023-01-11T01:01:52.462Z,95144.97
2023-01-11T01:04:19.984Z,95149.50
2023-01-11T01:06:47.593Z,95145.41
2023-01-11T01:09:15.229Z,95159.50
2023-01-11T01:11:42.818Z,95152.91
2023-01-11T01:14:28.811Z,95152.31
2023-01-11T01:17:00.204Z,95168.88
2023-01-11T01:19:28.680Z,95154.25
2023-01-11T01:21:56.888Z,95162.38
2023-01-11T01:24:25.313Z,95161.16
2023-01-11T01:26:52.946Z,95148.75
2023-01-11T01:29:20.596Z,95158.47
2023-01-11T01:31:48.236Z,95155.13
2023-01-11T01:34:17.245Z,95146.00
2023-01-11T01:36:44.895Z,95147.59
2023-01-11T01:39:13.022Z,95142.97
2023-01-11T01:41:40.755Z,95141.06
2023-01-11T01:44:41.764Z,95144.78
2023-01-11T01:47:09.520Z,95140.22
2023-01-11T01:49:38.557Z,95143.75
2023-01-11T01:52:06.494Z,95131.34
2023-01-11T01:54:37.868Z,95135.88
2023-01-11T01:57:08.257Z,95131.97
2023-01-11T01:59:35.853Z,95135.31
2023-01-11T02:02:03.460Z,95132.22
2023-01-11T02:04:33.248Z,95130.63
2023-01-11T02:07:04.785Z,95118.28
2023-01-11T02:09:35.590Z,95121.22
2023-01-11T02:12:04.158Z,95121.66
2023-01-11T02:14:33.216Z,95121.72
2023-01-11T02:17:00.799Z,95107.69
2023-01-11T02:19:40.398Z,95116.44
2023-01-11T02:22:23.906Z,95112.56
2023-01-11T02:25:09.080Z,95109.09
2023-01-11T02:27:51.696Z,95100.44
2023-01-11T02:30:25.532Z,95108.97
2023-01-11T02:33:00.272Z,95097.19
2023-01-11T02:35:35.343Z,95095.94
2023-01-11T02:38:07.111Z,95101.38
2023-01-11T02:40:40.350Z,95091.22
2023-01-11T02:43:31.940Z,95097.69
2023-01-11T02:46:03.313Z,95095.63
2023-01-11T02:48:35.258Z,95097.31
2023-01-11T02:51:07.045Z,95091.31
2023-01-11T02:53:38.158Z,95089.25
2023-01-11T02:56:08.932Z,95088.22
2023-01-11T02:58:41.536Z,95079.94
2023-01-11T03:01:09.343Z,95086.16
2023-01-11T03:03:36.909Z,95081.22
2023-01-11T03:06:07.356Z,95073.38
2023-01-11T03:08:55.158Z,95077.13
2023-01-11T03:11:46.747Z,95065.97
2023-01-11T03:14:22.060Z,95070.34
2023-01-11T03:16:53.219Z,95070.13
2023-01-11T03:19:29.404Z,95063.28
2023-01-11T03:22:01.058Z,95059.16
2023-01-11T03:24:32.204Z,95053.13
2023-01-11T03:27:08.419Z,95055.22
2023-01-11T03:29:41.208Z,95051.50
2023-01-11T03:32:17.737Z,95054.38
2023-01-11T03:34:50.575Z,95045.25
2023-01-11T03:37:20.812Z,95034.09
2023-01-11T03:39:53.259Z,95024.59
2023-01-11T03:42:22.993Z,95029.75
2023-01-11T03:44:55.437Z,95022.53
2023-01-11T03:47:25.235Z,95005.97
2023-01-11T03:49:54.496Z,95009.06
2023-01-11T03:52:26.020Z,95009.50
2023-01-11T03:54:54.732Z,94999.13
2023-01-11T03:57:24.707Z,94994.78
2023-01-11T03:59:54.592Z,94993.56
2023-01-11T04:02:23.881Z,94993.78
2023-01-11T04:04:51.875Z,94994.41
2023-01-11T04:07:19.729Z,94994.19
2023-01-11T04:09:47.358Z,94999.78
2023-01-11T04:12:14.998Z,94992.13
2023-01-11T04:14:42.646Z,94983.81
2023-01-11T04:17:11.639Z,94987.38
2023-01-11T04:19:39.196Z,94988.19
2023-01-11T04:22:06.756Z,94979.28
2023-01-11T04:24:34.380Z,94977.19
2023-01-11T04:27:02.004Z,94970.75
2023-01-11T04:29:29.593Z,94980.28
2023-01-11T04:31:57.540Z,94983.16
2023-01-11T04:34:26.445Z,94973.19
2023-01-11T04:36:54.022Z,94975.28
2023-01-11T04:39:21.850Z,94970.50
2023-01-11T04:42:06.909Z,94984.84
2023-01-11T04:44:34.528Z,94966.56
2023-01-11T04:47:02.087Z,94970.06
2023-01-11T04:49:31.071Z,94963.22
2023-01-11T04:51:58.632Z,94967.75
2023-01-11T04:54:26.247Z,94957.59
2023-01-11T04:56:53.810Z,94962.97
2023-01-11T04:59:21.420Z,94952.78
2023-01-11T05:01:49.042Z,94952.38
2023-01-11T05:04:16.701Z,94954.66
2023-01-11T05:06:45.653Z,94955.66
2023-01-11T05:09:14.567Z,94950.66
2023-01-11T05:11:42.404Z,94952.28
2023-01-11T05:14:10.314Z,94954.31
2023-01-11T05:16:38.126Z,94956.38
2023-01-11T05:19:06.280Z,94959.69
2023-01-11T05:21:39.096Z,94950.56
2023-01-11T05:24:09.694Z,94959.47
2023-01-11T05:26:39.434Z,94959.28
2023-01-11T05:29:08.952Z,94956.56
2023-01-11T05:31:37.912Z,94954.94
2023-01-11T05:34:06.876Z,94947.44
2023-01-11T05:36:35.225Z,94959.06
2023-01-11T05:39:03.147Z,94949.72
2023-01-11T05:41:32.145Z,94952.81
2023-01-11T05:44:17.358Z,94953.41
2023-01-11T05:46:45.663Z,94948.41
2023-01-11T05:49:14.329Z,94949.03
2023-01-11T05:51:42.855Z,94951.94
2023-01-11T05:54:12.800Z,94953.81
2023-01-11T05:56:42.624Z,94952.97
2023-01-11T05:59:10.590Z,94949.69
2023-01-11T06:01:38.888Z,94952.59
2023-01-11T06:04:08.352Z,94952.59
2023-01-11T06:06:36.192Z,94948.81
2023-01-11T06:09:04.004Z,94947.19
2023-01-11T06:11:31.602Z,94945.31
2023-01-11T06:14:00.525Z,94945.13
2023-01-11T06:16:28.252Z,94934.16
2023-01-11T06:18:55.917Z,94937.47
2023-01-11T06:21:24.312Z,94943.94
2023-01-11T06:23:52.487Z,94946.66
2023-01-11T06:26:22.164Z,94935.63
2023-01-11T06:28:49.939Z,94938.53
2023-01-11T06:31:19.176Z,94945.38
2023-01-11T06:33:47.379Z,94948.06
2023-01-11T06:36:15.940Z,94942.88
2023-01-11T06:38:43.981Z,94947.69
2023-01-11T06:41:12.909Z,94943.75
2023-01-11T06:43:42.167Z,94935.84
2023-01-11T06:46:13.510Z,94943.94
2023-01-11T06:48:42.790Z,94941.66
2023-01-11T06:51:11.863Z,94923.19
2023-01-11T06:53:39.609Z,94934.81
2023-01-11T06:56:07.740Z,94935.88
2023-01-11T06:58:35.348Z,94938.59
2023-01-11T07:01:03.164Z,94939.41
2023-01-11T07:03:31.136Z,94941.88
2023-01-11T07:06:00.179Z,94935.88
2023-01-11T07:08:28.115Z,94943.13
2023-01-11T07:10:55.886Z,94946.69
2023-01-11T07:13:23.930Z,94951.22
2023-01-11T07:15:54.042Z,94948.53
2023-01-11T07:18:21.827Z,94939.81
2023-01-11T07:20:49.402Z,94942.75
2023-01-11T07:23:18.362Z,94945.66
2023-01-11T07:25:45.915Z,94951.91
2023-01-11T07:28:13.500Z,94949.41
2023-01-11T07:30:56.662Z,94947.13
2023-01-11T07:33:26.353Z,94951.06
2023-01-11T07:35:54.219Z,94947.16
2023-01-11T07:38:23.354Z,94942.78
2023-01-11T07:40:51.031Z,94945.28
2023-01-11T07:43:19.697Z,94943.41
2023-01-11T07:45:49.591Z,94944.25
2023-01-11T07:48:20.964Z,94941.56
2023-01-11T07:50:49.327Z,94951.06
2023-01-11T07:53:18.893Z,94949.00
2023-01-11T07:55:48.384Z,94946.06
2023-01-11T07:58:16.568Z,94941.72
2023-01-11T08:00:46.045Z,94936.09
2023-01-11T08:03:13.928Z,94941.50
2023-01-11T08:05:41.704Z,94938.97
2023-01-11T08:08:09.523Z,94942.06
2023-01-11T08:10:37.091Z,94930.00
2023-01-11T08:13:23.439Z,94940.59
2023-01-11T08:15:51.179Z,94939.34
2023-01-11T08:18:19.745Z,94936.41
2023-01-11T08:20:47.648Z,94929.75
2023-01-11T08:23:15.228Z,94929.31
2023-01-11T08:25:42.815Z,94926.78
2023-01-11T08:28:12.670Z,94925.09
2023-01-11T08:30:40.939Z,94916.31
2023-01-11T08:33:08.538Z,94912.97
2023-01-11T08:35:39.511Z,94910.84
2023-01-11T08:38:07.211Z,94916.81
2023-01-11T08:40:34.814Z,94913.25
2023-01-11T08:43:02.494Z,94913.00
2023-01-11T08:45:31.487Z,94900.66
2023-01-11T08:48:01.110Z,94903.25
2023-01-11T08:50:28.823Z,94904.16
2023-01-11T08:52:56.427Z,94913.22
2023-01-11T08:55:24.033Z,94909.97
2023-01-11T08:57:51.779Z,94902.19
2023-01-11T09:00:20.827Z,94896.69
2023-01-11T09:02:49.811Z,94904.97
2023-01-11T09:05:18.346Z,94897.00
2023-01-11T09:07:46.989Z,94895.25
2023-01-11T09:10:14.613Z,94898.34
2023-01-11T09:12:42.226Z,94900.97
2023-01-11T09:15:10.632Z,94890.06
2023-01-11T09:17:38.221Z,94894.56
2023-01-11T09:20:08.604Z,94893.88
2023-01-11T09:22:36.216Z,94894.03
2023-01-11T09:25:03.994Z,94893.56
2023-01-11T09:27:31.677Z,94898.16
2023-01-11T09:29:59.319Z,94900.53
2023-01-11T09:32:27.051Z,94904.91
2023-01-11T09:34:57.920Z,94896.34
2023-01-11T09:37:27.070Z,94904.38
2023-01-11T09:39:54.735Z,94907.00
2023-01-11T09:42:32.281Z,94906.91
2023-01-11T09:45:07.158Z,94898.69
2023-01-11T09:47:40.854Z,94902.09
2023-01-11T09:50:14.210Z,94897.41
2023-01-11T09:52:44.663Z,94909.47
2023-01-11T09:55:19.160Z,94901.22
2023-01-11T09:58:03.877Z,94902.63
2023-01-11T10:00:41.453Z,94890.16
2023-01-11T10:03:36.346Z,94889.41
2023-01-11T10:06:11.479Z,94881.91
2023-01-11T10:18:33.480Z,94873.22
2023-01-11T10:18:41.718Z,94881.56
2023-01-11T10:20:35.479Z,94870.53
2023-01-11T10:23:06.371Z,94869.44
2023-01-11T10:25:42.718Z,94863.66
2023-01-11T10:28:17.467Z,94867.09
2023-01-11T10:31:01.327Z,94864.94
2023-01-11T10:33:46.347Z,94865.38
2023-01-11T10:36:34.659Z,94865.59
2023-01-11T10:39:17.529Z,94869.34
2023-01-11T10:41:57.103Z,94869.06
2023-01-11T10:44:31.430Z,94875.53
2023-01-11T10:47:00.837Z,94864.97
2023-01-11T10:49:44.280Z,94860.97
2023-01-11T10:52:26.261Z,94865.91
2023-01-11T10:54:57.261Z,94847.31
2023-01-11T10:57:37.203Z,94861.25
2023-01-11T11:00:18.398Z,94855.31
2023-01-11T11:02:58.918Z,94847.97
2023-01-11T11:05:33.165Z,94846.69
2023-01-11T11:08:05.695Z,94831.50
2023-01-11T11:10:36.933Z,94833.03
2023-01-11T11:13:12.706Z,94840.28
2023-01-11T11:15:42.504Z,94834.31
2023-01-11T11:18:10.714Z,94828.56
2023-01-11T11:20:38.574Z,94831.03
2023-01-11T11:23:06.234Z,94834.91
2023-01-11T11:25:37.440Z,94831.19
2023-01-11T11:28:08.374Z,94820.84
2023-01-11T11:30:38.282Z,94825.75
2023-01-11T11:33:08.635Z,94821.75
2023-01-11T11:35:38.699Z,94820.16
2023-01-11T11:38:06.584Z,94814.97
2023-01-11T11:40:36.545Z,94813.91
2023-01-11T11:43:22.425Z,94811.25
2023-01-11T11:45:55.137Z,94806.41
2023-01-11T11:48:23.573Z,94809.72
2023-01-11T11:50:52.062Z,94799.41
2023-01-11T11:53:28.457Z,94805.66
2023-01-11T11:55:56.252Z,94793.97
2023-01-11T11:58:26.565Z,94791.25
2023-01-11T12:00:54.507Z,94772.53
2023-01-11T12:03:26.308Z,94783.66
2023-01-11T12:05:57.450Z,94779.88
2023-01-11T12:08:25.949Z,94782.59
2023-01-11T12:10:57.492Z,94772.84
2023-01-11T12:13:34.670Z,94781.91
2023-01-11T12:16:03.519Z,94773.22
2023-01-11T12:18:33.386Z,94766.47
2023-01-11T12:21:21.242Z,94766.47
2023-01-11T12:23:49.189Z,94764.34
2023-01-11T12:26:23.666Z,94765.78
2023-01-11T12:29:23.230Z,94759.47
2023-01-11T12:31:59.920Z,94758.16
2023-01-11T12:34:38.432Z,94756.84
2023-01-11T12:37:13.065Z,94759.84
2023-01-11T12:39:45.375Z,94760.66
2023-01-11T12:42:32.834Z,94756.84
2023-01-11T12:45:16.071Z,94759.91
2023-01-11T12:48:08.343Z,94755.03
2023-01-11T12:53:16.923Z,94746.09
2023-01-11T12:56:08.104Z,94749.97
2023-01-11T12:58:38.689Z,94751.38
2023-01-11T13:01:16.241Z,94750.03
2023-01-11T13:03:58.280Z,94747.06
2023-01-11T13:06:30.303Z,94728.81
2023-01-11T13:09:02.599Z,94739.44
2023-01-11T13:11:43.566Z,94731.03
2023-01-11T13:14:26.464Z,94741.44
2023-01-11T13:17:01.406Z,94736.78
2023-01-11T13:19:32.806Z,94738.44
2023-01-11T13:22:05.243Z,94740.91
2023-01-11T13:24:33.946Z,94746.69
2023-01-11T13:27:03.762Z,94746.69
2023-01-11T13:29:33.631Z,94745.38
2023-01-11T13:32:06.631Z,94751.88
2023-01-11T13:34:37.379Z,94749.72
2023-01-11T13:37:08.668Z,94748.66
2023-01-11T13:39:43.526Z,94745.88
2023-01-11T13:42:15.175Z,94760.03
2023-01-11T13:44:47.565Z,94758.38
2023-01-11T13:47:19.192Z,94751.06
2023-01-11T13:49:55.294Z,94756.75
2023-01-11T13:52:29.383Z,94766.50
2023-01-11T13:55:01.864Z,94761.78
2023-01-11T13:57:35.489Z,94769.28
2023-01-11T14:00:06.682Z,94780.59
2023-01-11T14:02:40.977Z,94784.56
2023-01-11T14:05:14.911Z,94792.88
2023-01-11T14:07:51.589Z,94794.94
2023-01-11T14:10:26.171Z,94795.94
2023-01-11T14:13:09.975Z,94789.75
2023-01-11T14:15:41.980Z,94791.56
2023-01-11T14:18:23.890Z,94784.53
2023-01-11T14:20:59.151Z,94787.41
2023-01-11T14:23:32.004Z,94788.13
2023-01-11T14:26:23.777Z,94783.91
2023-01-11T14:29:00.287Z,94791.03
2023-01-11T14:31:41.609Z,94793.19
2023-01-11T14:34:30.913Z,94803.63
2023-01-11T14:37:26.132Z,94788.91
2023-01-11T14:40:07.102Z,94798.00
2023-01-11T14:42:44.991Z,94804.16
2023-01-11T14:45:31.100Z,94809.00
2023-01-11T14:48:07.419Z,94808.31
2023-01-11T14:50:43.920Z,94799.00
2023-01-11T14:53:14.005Z,94800.19
2023-01-11T14:55:45.090Z,94799.25
2023-01-11T14:58:25.305Z,94804.69
2023-01-11T15:01:11.903Z,94817.19
2023-01-11T15:03:49.419Z,94810.69
2023-01-11T15:06:21.372Z,94816.59
2023-01-11T15:08:51.610Z,94809.50
2023-01-11T15:11:24.981Z,94816.50
2023-01-11T15:13:56.644Z,94823.44
2023-01-11T15:16:42.842Z,94821.81
2023-01-11T15:19:14.165Z,94823.94
2023-01-11T15:21:49.944Z,94828.75
2023-01-11T15:24:28.344Z,94829.19
2023-01-11T15:26:56.529Z,94824.72
2023-01-11T15:29:27.032Z,94828.97
2023-01-11T15:32:15.595Z,94827.22
2023-01-11T15:34:45.695Z,94823.66
2023-01-11T15:37:40.712Z,94834.97
2023-01-11T15:40:16.548Z,94846.53
2023-01-11T15:43:24.915Z,94855.25
2023-01-11T15:46:20.215Z,94845.69
2023-01-11T15:49:13.831Z,94857.38
2023-01-11T15:51:54.661Z,94856.66
2023-01-11T15:54:39.083Z,94864.56
2023-01-11T15:57:22.465Z,94879.19
2023-01-11T16:00:22.364Z,94878.22
2023-01-11T16:03:11.911Z,94887.31
2023-01-11T16:05:43.206Z,94882.34
2023-01-11T16:08:20.109Z,94883.25
2023-01-11T16:10:59.140Z,94881.84
2023-01-11T16:13:53.543Z,94895.88
2023-01-11T16:16:22.266Z,94893.16
2023-01-11T16:18:52.810Z,94897.16
2023-01-11T16:21:23.730Z,94903.03
2023-01-11T16:23:51.368Z,94903.63
2023-01-11T16:26:22.043Z,94907.63
2023-01-11T16:28:51.688Z,94913.50
2023-01-11T16:31:19.410Z,94915.41
2023-01-11T16:33:49.597Z,94918.56
2023-01-11T16:36:21.008Z,94927.16
2023-01-11T16:38:56.950Z,94925.97
2023-01-11T16:41:27.608Z,94927.59
2023-01-11T16:44:00.103Z,94930.75
2023-01-11T16:47:01.423Z,94937.84
2023-01-11T16:49:28.996Z,94944.78
2023-01-11T16:51:59.923Z,94945.25
2023-01-11T16:54:28.884Z,94948.78
2023-01-11T16:56:58.862Z,94944.66
2023-01-11T16:59:30.482Z,94953.81
2023-01-11T17:01:59.803Z,94945.69
2023-01-11T17:04:29.976Z,94954.63
2023-01-11T17:06:58.151Z,94961.34
2023-01-11T17:09:28.245Z,94948.25
2023-01-11T17:11:57.203Z,94948.25
2023-01-11T17:14:51.432Z,94958.03
2023-01-11T17:17:20.647Z,94962.41
2023-01-11T17:19:49.376Z,94967.22
2023-01-11T17:22:21.768Z,94966.78
2023-01-11T17:24:52.337Z,94974.91
2023-01-11T17:27:23.245Z,94979.25
2023-01-11T17:29:53.230Z,94978.19
2023-01-11T17:32:24.767Z,94992.34
2023-01-11T17:34:53.886Z,94994.81
2023-01-11T17:37:21.921Z,95005.81
2023-01-11T17:39:51.629Z,94999.56
2023-01-11T17:42:38.524Z,94999.44
2023-01-11T17:45:21.173Z,95008.38
2023-01-11T17:47:50.401Z,95014.25
2023-01-11T17:50:25.130Z,95015.09
2023-01-11T17:52:55.146Z,95011.16
2023-01-11T17:55:24.755Z,95016.44
2023-01-11T17:58:11.344Z,95027.03
2023-01-11T18:00:39.173Z,95039.78
2023-01-11T18:03:10.609Z,95040.22
2023-01-11T18:05:38.346Z,95050.47
2023-01-11T18:08:09.785Z,95050.47
2023-01-11T18:10:39.755Z,95039.91
2023-01-11T18:13:26.542Z,95049.91
2023-01-11T18:15:54.287Z,95040.28
2023-01-11T18:18:42.070Z,95052.81
2023-01-11T18:21:48.297Z,95052.81
2023-01-11T18:24:25.385Z,95054.13
2023-01-11T18:27:06.831Z,95051.63
2023-01-11T18:29:50.795Z,95059.00
2023-01-11T18:32:18.871Z,95068.31
2023-01-11T18:34:49.337Z,95076.22
2023-01-11T18:37:17.045Z,95071.63
2023-01-11T18:39:44.696Z,95076.00
2023-01-11T18:42:17.253Z,95077.03
2023-01-11T18:44:46.682Z,95078.72
2023-01-11T18:47:18.332Z,95073.75
2023-01-11T18:49:46.431Z,95083.81
2023-01-11T18:52:14.743Z,95073.88
2023-01-11T18:54:43.511Z,95086.81
2023-01-11T18:57:11.747Z,95090.94
2023-01-11T18:59:39.669Z,95095.38
2023-01-11T19:04:48.431Z,95104.69
2023-01-11T19:07:16.678Z,95107.19
2023-01-11T19:09:45.476Z,95110.34
2023-01-11T19:12:13.245Z,95112.00
2023-01-11T19:14:41.303Z,95098.84
2023-01-11T19:17:09.338Z,95101.53
2023-01-11T19:19:38.328Z,95099.28
2023-01-11T19:22:06.815Z,95101.38
2023-01-11T19:24:34.543Z,95108.91
2023-01-11T19:27:02.415Z,95107.00
2023-01-11T19:29:30.336Z,95108.06
2023-01-11T19:31:57.945Z,95109.34
2023-01-11T19:34:25.539Z,95115.19
2023-01-11T19:36:54.494Z,95123.13
2023-01-11T19:39:22.112Z,95122.53
2023-01-11T19:41:57.930Z,95130.72
2023-01-11T19:44:27.717Z,95119.94
2023-01-11T19:47:10.312Z,95134.06
2023-01-11T19:49:38.758Z,95141.56
2023-01-11T19:52:12.519Z,95155.94
2023-01-11T19:54:42.002Z,95150.13
2023-01-11T19:57:11.171Z,95163.47
2023-01-11T19:59:39.021Z,95159.09
2023-01-11T20:02:06.862Z,95161.81
2023-01-11T20:04:34.507Z,95155.38
2023-01-11T20:07:02.086Z,95159.75
2023-01-11T20:09:31.017Z,95156.41
2023-01-11T20:11:58.888Z,95161.81
2023-01-11T20:14:26.907Z,95169.94
2023-01-11T20:16:54.628Z,95172.63
2023-01-11T20:19:22.235Z,95171.22
2023-01-11T20:21:49.900Z,95174.13
2023-01-11T20:24:17.690Z,95174.34
2023-01-11T20:26:47.148Z,95182.47
2023-01-11T20:29:14.811Z,95187.06
2023-01-11T20:31:42.541Z,95185.38
2023-01-11T20:34:13.113Z,95179.16
2023-01-11T20:36:41.993Z,95179.38
2023-01-11T20:39:10.409Z,95185.00
2023-01-11T20:41:50.931Z,95180.63
2023-01-11T20:44:22.080Z,95195.41
2023-01-11T20:46:49.917Z,95199.16
2023-01-11T20:49:17.889Z,95192.94
2023-01-11T20:51:46.408Z,95203.34
2023-01-11T20:54:14.452Z,95207.09
2023-01-11T20:56:42.245Z,95206.69
2023-01-11T21:01:39.447Z,95197.97
2023-01-11T21:04:08.677Z,95186.94
2023-01-11T21:06:37.852Z,95181.53
2023-01-11T21:09:06.350Z,95190.69
2023-01-11T21:11:34.355Z,95199.81
2023-01-11T21:14:04.049Z,95197.13
2023-01-11T21:16:32.532Z,95203.59
2023-01-11T21:19:02.858Z,95198.19
2023-01-11T21:21:31.598Z,95199.81
2023-01-11T21:24:00.360Z,95204.19
2023-01-11T21:26:29.474Z,95193.59
2023-01-11T21:28:59.453Z,95194.66
2023-01-11T21:31:28.044Z,95199.63
2023-01-11T21:33:56.044Z,95206.72
2023-01-11T21:36:26.475Z,95217.13
2023-01-11T21:38:54.656Z,95228.97
2023-01-11T21:41:43.823Z,95226.25
2023-01-11T21:44:12.644Z,95215.03
2023-01-11T21:46:40.516Z,95213.63
2023-01-11T21:49:08.648Z,95228.78
2023-01-11T21:51:38.043Z,95231.69
2023-01-11T21:54:07.240Z,95226.91
2023-01-11T21:56:35.547Z,95231.72
2023-01-11T21:59:03.264Z,95243.13
2023-01-11T22:01:31.211Z,95239.22
2023-01-11T22:03:58.852Z,95236.13
2023-01-11T22:06:26.480Z,95233.00
2023-01-11T22:08:55.507Z,95235.28
2023-01-11T22:11:23.257Z,95243.41
2023-01-11T22:13:50.815Z,95242.75
2023-01-11T22:16:19.529Z,95251.53
2023-01-11T22:18:47.222Z,95250.88
2023-01-11T22:21:17.755Z,95255.47
2023-01-11T22:23:46.542Z,95262.97
2023-01-11T22:26:17.769Z,95263.81
2023-01-11T22:29:03.814Z,95272.34
2023-01-11T22:31:32.666Z,95288.75
2023-01-11T22:34:01.351Z,95288.13
2023-01-11T22:36:29.620Z,95284.41
2023-01-11T22:38:57.404Z,95285.41
2023-01-11T22:41:27.124Z,95278.78
2023-01-11T22:43:55.080Z,95282.50
2023-01-11T22:46:23.898Z,95283.53
2023-01-11T22:48:52.060Z,95280.00
2023-01-11T22:51:20.877Z,95287.09
2023-01-11T22:53:49.902Z,95299.56
2023-01-11T22:56:19.338Z,95299.97
2023-01-11T22:58:48.531Z,95299.75
2023-01-11T23:01:17.892Z,95303.31
2023-01-11T23:03:46.193Z,95304.97
2023-01-11T23:06:16.570Z,95317.03
2023-01-11T23:08:44.428Z,95317.22
2023-01-11T23:11:14.901Z,95328.03
2023-01-11T23:13:54.991Z,95330.13
2023-01-11T23:16:23.999Z,95330.31
2023-01-11T23:18:51.610Z,95332.81
2023-01-11T23:21:20.319Z,95325.34
2023-01-11T23:23:47.915Z,95321.56
2023-01-11T23:26:17.962Z,95321.56
2023-01-11T23:28:46.185Z,95327.84
2023-01-11T23:31:17.211Z,95340.06
2023-01-11T23:33:47.117Z,95344.84
2023-01-11T23:36:15.409Z,95339.44
2023-01-11T23:38:43.171Z,95338.59
2023-01-11T23:41:30.080Z,95341.28
2023-01-11T23:43:58.079Z,95323.16
2023-01-11T23:46:43.643Z,95323.97
2023-01-11T23:49:14.442Z,95316.31
2023-01-11T23:51:43.169Z,95320.03
2023-01-11T23:54:11.546Z,95317.53
2023-01-11T23:56:39.575Z,95322.31
2023-01-11T23:59:08.003Z,95327.50
